createdAt,value
2022-11-23T00:00:55.283Z,55.00
2022-11-23T00:03:21.738Z,54.60
2022-11-23T00:05:48.275Z,54.70
2022-11-23T00:08:14.736Z,54.80
2022-11-23T00:10:41.204Z,54.70
2022-11-23T00:13:07.671Z,54.80
2022-11-23T00:15:34.146Z,55.00
2022-11-23T00:18:00.621Z,55.20
2022-11-23T00:20:27.117Z,55.20
2022-11-23T00:22:53.588Z,55.30
2022-11-23T00:25:20.065Z,55.30
2022-11-23T00:27:46.543Z,55.50
2022-11-23T00:30:13.012Z,55.10
2022-11-23T00:32:39.481Z,55.30
2022-11-23T00:35:05.939Z,55.40
2022-11-23T00:37:32.393Z,55.30
2022-11-23T00:39:58.866Z,54.80
2022-11-23T00:42:25.301Z,55.20
2022-11-23T00:44:51.774Z,55.50
2022-11-23T00:47:18.250Z,55.40
2022-11-23T00:49:44.710Z,55.10
2022-11-23T00:52:11.161Z,55.10
2022-11-23T00:54:37.650Z,55.90
2022-11-23T00:57:04.113Z,55.50
2022-11-23T00:59:30.946Z,55.40
2022-11-23T01:01:57.635Z,54.80
2022-11-23T01:04:27.128Z,54.90
2022-11-23T01:06:53.593Z,55.70
2022-11-23T01:09:20.061Z,55.40
2022-11-23T01:11:46.537Z,55.70
2022-11-23T01:14:12.983Z,55.20
2022-11-23T01:16:39.477Z,55.30
2022-11-23T01:19:05.948Z,55.30
2022-11-23T01:21:34.967Z,55.40
2022-11-23T01:24:01.414Z,55.60
2022-11-23T01:26:27.890Z,55.80
2022-11-23T01:28:54.387Z,56.00
2022-11-23T01:31:20.858Z,55.50
2022-11-23T01:33:47.315Z,55.60
2022-11-23T01:36:13.771Z,56.10
2022-11-23T01:38:40.237Z,56.60
2022-11-23T01:41:06.676Z,57.00
2022-11-23T01:43:33.154Z,57.60
2022-11-23T01:45:59.674Z,57.20
2022-11-23T01:48:26.154Z,56.60
2022-11-23T01:50:52.623Z,56.60
2022-11-23T01:53:19.094Z,56.30
2022-11-23T01:55:45.582Z,56.40
2022-11-23T01:58:12.074Z,56.60
2022-11-23T02:00:38.564Z,56.00
2022-11-23T02:03:05.027Z,55.80
2022-11-23T02:05:31.506Z,55.90
2022-11-23T02:07:57.982Z,55.80
2022-11-23T02:10:25.068Z,55.90
2022-11-23T02:12:51.554Z,55.70
2022-11-23T02:15:18.021Z,55.40
2022-11-23T02:17:44.498Z,55.40
2022-11-23T02:20:10.997Z,55.50
2022-11-23T02:22:37.451Z,55.70
2022-11-23T02:25:04.994Z,55.50
2022-11-23T02:27:31.480Z,56.00
2022-11-23T02:29:57.931Z,56.20
2022-11-23T02:32:24.421Z,56.40
2022-11-23T02:34:50.891Z,56.00
2022-11-23T02:37:17.341Z,56.00
2022-11-23T02:39:43.800Z,56.20
2022-11-23T02:42:10.257Z,56.90
2022-11-23T02:44:36.728Z,56.40
2022-11-23T02:47:03.212Z,56.40
2022-11-23T02:49:29.985Z,56.10
2022-11-23T02:51:56.698Z,56.10
2022-11-23T02:54:23.119Z,56.40
2022-11-23T02:56:49.624Z,56.50
2022-11-23T02:59:16.452Z,56.30
2022-11-23T03:01:42.924Z,56.40
2022-11-23T03:04:09.386Z,56.20
2022-11-23T03:06:35.869Z,56.40
2022-11-23T03:09:02.318Z,56.20
2022-11-23T03:11:28.786Z,56.10
2022-11-23T03:13:55.254Z,56.00
2022-11-23T03:16:21.711Z,56.30
2022-11-23T03:18:48.183Z,56.70
2022-11-23T03:21:14.650Z,56.70
2022-11-23T03:23:41.115Z,56.60
2022-11-23T03:26:12.670Z,56.50
2022-11-23T03:28:39.672Z,56.50
2022-11-23T03:31:06.133Z,56.70
2022-11-23T03:33:32.596Z,56.80
2022-11-23T03:35:59.033Z,56.60
2022-11-23T03:38:25.538Z,56.90
2022-11-23T03:40:51.988Z,56.90
2022-11-23T03:43:18.477Z,56.80
2022-11-23T03:45:44.953Z,57.20
2022-11-23T03:48:13.796Z,57.00
2022-11-23T03:50:40.245Z,56.90
2022-11-23T03:53:06.753Z,56.60
2022-11-23T03:55:33.229Z,56.60
2022-11-23T03:57:59.718Z,56.80
2022-11-23T04:00:26.190Z,56.90
2022-11-23T04:02:52.667Z,57.00
2022-11-23T04:05:19.119Z,57.00
2022-11-23T04:07:45.625Z,57.10
2022-11-23T04:10:12.118Z,57.10
2022-11-23T04:12:38.585Z,56.90
2022-11-23T04:15:05.034Z,56.40
2022-11-23T04:17:31.497Z,56.50
2022-11-23T04:19:58.084Z,56.60
2022-11-23T04:22:24.556Z,56.90
2022-11-23T04:24:51.014Z,56.80
2022-11-23T04:27:17.520Z,56.80
2022-11-23T04:29:43.987Z,56.90
2022-11-23T04:32:10.479Z,56.60
2022-11-23T04:34:36.941Z,56.90
2022-11-23T04:37:07.875Z,56.60
2022-11-23T04:39:38.254Z,56.70
2022-11-23T04:42:04.739Z,56.50
2022-11-23T04:44:31.195Z,56.70
2022-11-23T04:46:57.650Z,56.70
2022-11-23T04:49:24.100Z,56.70
2022-11-23T04:51:50.559Z,56.50
2022-11-23T04:54:17.053Z,56.70
2022-11-23T04:56:43.523Z,56.40
2022-11-23T04:59:09.981Z,56.30
2022-11-23T05:01:36.480Z,56.50
2022-11-23T05:04:02.974Z,56.50
2022-11-23T05:06:29.434Z,56.50
2022-11-23T05:08:55.886Z,56.60
2022-11-23T05:11:22.357Z,56.60
2022-11-23T05:13:48.861Z,56.60
2022-11-23T05:16:15.327Z,56.50
2022-11-23T05:18:41.816Z,56.30
2022-11-23T05:21:08.292Z,56.60
2022-11-23T05:23:34.793Z,56.50
2022-11-23T05:28:42.082Z,56.30
2022-11-23T05:31:08.739Z,56.70
2022-11-23T05:33:35.209Z,56.30
2022-11-23T05:36:01.677Z,56.10
2022-11-23T05:38:28.227Z,56.30
2022-11-23T05:40:54.689Z,56.30
2022-11-23T05:43:23.855Z,56.20
2022-11-23T05:45:50.385Z,56.10
2022-11-23T05:48:17.020Z,56.20
2022-11-23T05:50:43.488Z,56.60
2022-11-23T05:53:09.956Z,56.70
2022-11-23T05:55:36.529Z,56.50
2022-11-23T05:58:03.030Z,56.50
2022-11-23T06:00:29.489Z,56.50
2022-11-23T06:02:55.943Z,56.60
2022-11-23T06:05:22.422Z,56.80
2022-11-23T06:07:48.917Z,56.80
2022-11-23T06:10:15.396Z,56.70
2022-11-23T06:12:41.851Z,56.50
2022-11-23T06:17:48.631Z,56.80
2022-11-23T06:20:15.090Z,56.80
2022-11-23T06:22:41.552Z,56.80
2022-11-23T06:25:08.031Z,56.80
2022-11-23T06:27:34.519Z,56.90
2022-11-23T06:30:00.967Z,57.50
2022-11-23T06:32:27.432Z,57.20
2022-11-23T06:34:56.649Z,57.30
2022-11-23T06:37:25.931Z,57.20
2022-11-23T06:39:52.412Z,57.30
2022-11-23T06:45:05.345Z,57.40
2022-11-23T06:47:31.832Z,56.90
2022-11-23T06:49:58.337Z,57.00
2022-11-23T06:52:24.798Z,57.20
2022-11-23T06:54:51.259Z,57.10
2022-11-23T06:57:17.782Z,57.10
2022-11-23T06:59:45.029Z,57.20
2022-11-23T07:02:11.613Z,57.30
2022-11-23T07:04:38.098Z,57.30
2022-11-23T07:07:04.658Z,57.20
2022-11-23T07:09:36.247Z,57.00
2022-11-23T07:12:02.691Z,57.10
2022-11-23T07:14:29.207Z,57.20
2022-11-23T07:16:55.667Z,57.50
2022-11-23T07:19:22.122Z,57.40
2022-11-23T07:21:48.591Z,57.30
2022-11-23T07:24:15.085Z,56.90
2022-11-23T07:26:41.564Z,57.10
2022-11-23T07:29:11.214Z,57.20
2022-11-23T07:31:37.691Z,57.30
2022-11-23T07:34:04.152Z,57.00
2022-11-23T07:36:30.595Z,57.30
2022-11-23T07:38:57.061Z,57.80
2022-11-23T07:41:23.527Z,58.10
2022-11-23T07:43:49.980Z,57.60
2022-11-23T07:46:16.456Z,57.20
2022-11-23T07:48:42.919Z,57.40
2022-11-23T07:51:09.393Z,57.10
2022-11-23T07:53:35.859Z,57.20
2022-11-23T07:56:02.355Z,57.10
2022-11-23T07:58:28.818Z,57.10
2022-11-23T08:00:55.313Z,57.30
2022-11-23T08:03:29.725Z,57.00
2022-11-23T08:05:56.686Z,56.80
2022-11-23T08:08:23.140Z,57.40
2022-11-23T08:10:53.352Z,57.10
2022-11-23T08:13:20.160Z,56.70
2022-11-23T08:15:53.254Z,56.60
2022-11-23T08:18:21.136Z,56.70
2022-11-23T08:20:47.641Z,57.00
2022-11-23T08:23:14.111Z,57.00
2022-11-23T08:25:40.598Z,57.40
2022-11-23T08:28:07.085Z,57.40
2022-11-23T08:30:33.564Z,57.30
2022-11-23T08:33:00.048Z,57.30
2022-11-23T08:35:26.515Z,57.20
2022-11-23T08:37:53.002Z,56.90
2022-11-23T08:40:24.824Z,56.60
2022-11-23T08:42:54.354Z,56.70
2022-11-23T08:45:20.835Z,56.80
2022-11-23T08:47:47.288Z,56.40
2022-11-23T08:50:13.771Z,56.50
2022-11-23T08:52:40.236Z,56.60
2022-11-23T08:55:06.817Z,57.00
2022-11-23T08:57:33.283Z,56.90
2022-11-23T08:59:59.729Z,57.10
2022-11-23T09:02:26.199Z,57.00
2022-11-23T09:04:52.662Z,56.90
2022-11-23T09:07:19.176Z,57.00
2022-11-23T09:09:45.658Z,56.90
2022-11-23T09:12:12.102Z,56.80
2022-11-23T09:14:38.576Z,56.70
2022-11-23T09:17:05.049Z,56.80
2022-11-23T09:19:31.518Z,56.90
2022-11-23T09:21:57.983Z,56.90
2022-11-23T09:24:24.448Z,56.70
2022-11-23T09:26:50.958Z,56.60
2022-11-23T09:29:17.415Z,56.40
2022-11-23T09:31:43.890Z,56.10
2022-11-23T09:34:10.375Z,56.00
2022-11-23T09:36:36.859Z,56.10
2022-11-23T09:39:03.307Z,55.90
2022-11-23T09:41:29.817Z,55.80
2022-11-23T09:43:56.287Z,55.90
2022-11-23T09:46:22.761Z,55.70
2022-11-23T09:48:58.747Z,56.00
2022-11-23T09:51:25.228Z,55.90
2022-11-23T09:53:51.720Z,55.90
2022-11-23T09:56:18.198Z,56.40
2022-11-23T09:58:44.651Z,56.10
2022-11-23T10:01:11.160Z,56.00
2022-11-23T10:03:37.702Z,56.40
2022-11-23T10:06:04.201Z,56.50
2022-11-23T10:08:30.713Z,56.30
2022-11-23T10:10:57.191Z,56.40
2022-11-23T10:13:23.667Z,56.80
2022-11-23T10:15:50.151Z,56.70
2022-11-23T10:18:16.614Z,56.60
2022-11-23T10:20:43.098Z,56.80
2022-11-23T10:23:09.541Z,56.90
2022-11-23T10:25:39.158Z,56.70
2022-11-23T10:28:05.942Z,56.60
2022-11-23T10:30:32.425Z,56.50
2022-11-23T10:32:58.895Z,56.80
2022-11-23T10:35:25.451Z,57.10
2022-11-23T10:37:53.745Z,57.00
2022-11-23T10:40:20.438Z,56.90
2022-11-23T10:42:46.906Z,56.90
2022-11-23T10:45:13.375Z,57.00
2022-11-23T10:47:39.831Z,56.90
2022-11-23T10:50:06.314Z,57.00
2022-11-23T10:52:32.787Z,56.90
2022-11-23T10:54:59.263Z,56.80
2022-11-23T10:57:25.787Z,56.60
2022-11-23T10:59:52.264Z,56.20
2022-11-23T11:02:18.723Z,56.10
2022-11-23T11:04:45.180Z,56.10
2022-11-23T11:07:11.662Z,55.80
2022-11-23T11:09:38.143Z,56.00
2022-11-23T11:12:04.619Z,56.40
2022-11-23T11:14:42.016Z,56.10
2022-11-23T11:17:09.359Z,55.70
2022-11-23T11:19:35.811Z,56.00
2022-11-23T11:22:02.319Z,55.90
2022-11-23T11:24:28.760Z,55.80
2022-11-23T11:26:56.351Z,55.70
2022-11-23T11:29:22.811Z,55.70
2022-11-23T11:31:49.299Z,55.60
2022-11-23T11:34:15.789Z,55.60
2022-11-23T11:36:42.269Z,55.60
2022-11-23T11:39:18.231Z,55.60
2022-11-23T11:41:45.493Z,55.50
2022-11-23T11:44:11.977Z,55.50
2022-11-23T11:46:38.476Z,55.60
2022-11-23T11:49:04.950Z,55.60
2022-11-23T11:51:31.531Z,55.50
2022-11-23T11:53:58.039Z,55.50
2022-11-23T11:56:24.579Z,55.20
2022-11-23T11:58:53.315Z,55.30
2022-11-23T12:01:19.800Z,55.20
2022-11-23T12:03:46.269Z,55.00
2022-11-23T12:06:12.722Z,55.20
2022-11-23T12:08:39.187Z,55.30
2022-11-23T12:11:05.718Z,55.20
2022-11-23T12:13:32.177Z,55.00
2022-11-23T12:16:00.931Z,55.20
2022-11-23T12:18:27.896Z,55.00
2022-11-23T12:20:54.375Z,54.90
2022-11-23T12:23:20.849Z,55.00
2022-11-23T12:25:47.316Z,55.00
2022-11-23T12:28:13.788Z,55.00
2022-11-23T12:30:40.256Z,54.90
2022-11-23T12:33:06.725Z,54.90
2022-11-23T12:35:33.176Z,54.90
2022-11-23T12:37:59.660Z,54.90
2022-11-23T12:40:26.140Z,54.80
2022-11-23T12:42:52.653Z,54.70
2022-11-23T12:45:19.136Z,54.90
2022-11-23T12:47:46.108Z,54.90
2022-11-23T12:50:12.601Z,54.90
2022-11-23T12:52:39.110Z,54.80
2022-11-23T12:55:05.591Z,55.00
2022-11-23T12:57:32.077Z,54.70
2022-11-23T12:59:58.568Z,54.90
2022-11-23T13:02:25.082Z,54.60
2022-11-23T13:04:51.622Z,54.80
2022-11-23T13:07:28.941Z,54.70
2022-11-23T13:09:57.103Z,54.70
2022-11-23T13:12:23.568Z,54.60
2022-11-23T13:14:50.204Z,54.70
2022-11-23T13:17:16.707Z,54.50
2022-11-23T13:19:43.188Z,54.30
2022-11-23T13:22:09.634Z,54.40
2022-11-23T13:24:36.541Z,54.40
2022-11-23T13:27:03.164Z,54.30
2022-11-23T13:29:29.661Z,54.30
2022-11-23T13:31:56.224Z,54.30
2022-11-23T13:34:22.761Z,54.50
2022-11-23T13:37:12.046Z,54.30
2022-11-23T13:39:37.781Z,54.40
2022-11-23T13:42:04.249Z,54.30
2022-11-23T13:44:30.984Z,54.30
2022-11-23T13:46:57.597Z,54.40
2022-11-23T13:49:24.075Z,54.20
2022-11-23T13:51:50.532Z,54.30
2022-11-23T13:54:19.590Z,54.20
2022-11-23T13:56:46.041Z,54.10
2022-11-23T13:59:12.551Z,54.30
2022-11-23T14:01:39.095Z,54.20
2022-11-23T14:04:05.584Z,54.10
2022-11-23T14:06:32.031Z,54.00
2022-11-23T14:08:58.503Z,54.00
2022-11-23T14:11:24.972Z,54.00
2022-11-23T14:13:51.554Z,54.10
2022-11-23T14:16:18.134Z,54.10
2022-11-23T14:18:44.653Z,54.00
2022-11-23T14:21:11.121Z,54.00
2022-11-23T14:23:37.594Z,53.90
2022-11-23T14:26:04.596Z,54.00
2022-11-23T14:28:31.090Z,54.10
2022-11-23T14:30:57.572Z,54.00
2022-11-23T14:33:24.123Z,54.20
2022-11-23T14:35:50.729Z,54.20
2022-11-23T14:38:17.188Z,54.20
2022-11-23T14:40:43.652Z,54.10
2022-11-23T14:43:10.601Z,54.10
2022-11-23T14:45:37.111Z,54.00
2022-11-23T14:48:03.589Z,54.00
2022-11-23T14:50:30.086Z,54.00
2022-11-23T14:52:56.555Z,54.00
2022-11-23T14:55:23.016Z,53.80
2022-11-23T14:57:49.466Z,53.90
2022-11-23T15:00:16.027Z,53.70
2022-11-23T15:02:42.566Z,53.80
2022-11-23T15:05:09.163Z,53.80
2022-11-23T15:07:37.167Z,53.90
2022-11-23T15:10:05.401Z,54.00
2022-11-23T15:12:32.967Z,53.80
2022-11-23T15:14:59.952Z,53.80
2022-11-23T15:17:26.911Z,53.80
2022-11-23T15:19:53.987Z,53.70
2022-11-23T15:22:20.880Z,53.70
2022-11-23T15:24:47.434Z,53.80
2022-11-23T15:27:15.165Z,53.80
2022-11-23T15:29:41.852Z,53.50
2022-11-23T15:32:30.097Z,53.70
2022-11-23T15:34:54.965Z,53.70
2022-11-23T15:37:21.419Z,53.80
2022-11-23T15:39:47.882Z,53.70
2022-11-23T15:42:14.404Z,53.70
2022-11-23T15:44:40.877Z,53.60
2022-11-23T15:47:07.799Z,53.70
2022-11-23T15:49:34.514Z,53.90
2022-11-23T15:52:01.174Z,53.70
2022-11-23T15:54:27.731Z,53.70
2022-11-23T15:57:05.697Z,53.70
2022-11-23T15:59:32.178Z,53.80
2022-11-23T16:01:58.836Z,53.70
2022-11-23T16:04:25.375Z,53.70
2022-11-23T16:06:51.858Z,53.70
2022-11-23T16:09:49.231Z,53.70
2022-11-23T16:12:04.794Z,53.90
2022-11-23T16:14:32.193Z,53.80
2022-11-23T16:16:59.045Z,54.00
2022-11-23T16:19:25.545Z,53.90
2022-11-23T16:21:52.039Z,54.20
2022-11-23T16:24:20.643Z,54.00
2022-11-23T16:26:47.143Z,53.90
2022-11-23T16:29:13.597Z,53.70
2022-11-23T16:31:40.145Z,54.00
2022-11-23T16:34:06.622Z,54.00
2022-11-23T16:36:33.112Z,54.20
2022-11-23T16:39:05.196Z,54.30
2022-11-23T16:41:35.098Z,54.40
2022-11-23T16:44:01.578Z,54.50
2022-11-23T16:46:28.260Z,54.60
2022-11-23T16:48:54.807Z,54.40
2022-11-23T16:51:21.273Z,54.00
2022-11-23T16:54:12.504Z,54.60
2022-11-23T16:56:34.171Z,54.60
2022-11-23T16:59:00.640Z,54.80
2022-11-23T17:01:27.128Z,54.70
2022-11-23T17:03:53.939Z,54.80
2022-11-23T17:06:20.539Z,54.90
2022-11-23T17:08:46.995Z,55.30
2022-11-23T17:11:13.499Z,55.40
2022-11-23T17:13:47.661Z,55.30
2022-11-23T17:16:14.206Z,54.80
2022-11-23T17:18:40.709Z,54.70
2022-11-23T17:21:07.185Z,54.70
2022-11-23T17:23:33.656Z,54.80
2022-11-23T17:26:00.133Z,54.90
2022-11-23T17:28:26.605Z,54.60
2022-11-23T17:30:53.169Z,54.50
2022-11-23T17:33:19.684Z,54.50
2022-11-23T17:35:46.170Z,54.50
2022-11-23T17:38:12.635Z,54.50
2022-11-23T17:40:39.141Z,54.50
2022-11-23T17:43:05.584Z,54.60
2022-11-23T17:45:32.034Z,54.50
2022-11-23T17:48:03.166Z,54.80
2022-11-23T17:50:30.136Z,55.00
2022-11-23T17:52:56.598Z,54.60
2022-11-23T17:55:23.163Z,54.50
2022-11-23T17:57:49.636Z,54.60
2022-11-23T18:00:16.131Z,54.60
2022-11-23T18:02:42.643Z,54.40
2022-11-23T18:05:09.154Z,54.40
2022-11-23T18:07:35.689Z,54.60
2022-11-23T18:10:02.302Z,54.50
2022-11-23T18:12:28.749Z,54.90
2022-11-23T18:14:55.207Z,54.90
2022-11-23T18:17:21.685Z,55.00
2022-11-23T18:19:48.150Z,55.40
2022-11-23T18:22:14.626Z,55.70
2022-11-23T18:24:41.202Z,56.10
2022-11-23T18:27:07.663Z,55.90
2022-11-23T18:29:34.576Z,56.50
2022-11-23T18:32:01.359Z,56.30
2022-11-23T18:34:27.849Z,56.30
2022-11-23T18:36:54.332Z,55.80
2022-11-23T18:39:20.821Z,55.40
2022-11-23T18:41:47.298Z,55.80
2022-11-23T18:44:14.047Z,55.70
2022-11-23T18:46:40.634Z,55.70
2022-11-23T18:49:07.137Z,55.80
2022-11-23T18:51:33.607Z,55.80
2022-11-23T18:54:00.114Z,55.60
2022-11-23T18:56:26.594Z,55.50
2022-11-23T18:58:53.403Z,55.40
2022-11-23T19:01:19.943Z,55.20
2022-11-23T19:03:46.589Z,55.20
2022-11-23T19:06:13.734Z,55.60
2022-11-23T19:08:47.877Z,55.50
2022-11-23T19:11:14.371Z,55.40
2022-11-23T19:13:40.843Z,55.20
2022-11-23T19:16:07.349Z,55.30
2022-11-23T19:18:33.856Z,55.40
2022-11-23T19:21:00.397Z,55.30
2022-11-23T19:23:29.617Z,55.40
2022-11-23T19:25:56.447Z,55.10
2022-11-23T19:28:22.911Z,55.30
2022-11-23T19:30:49.474Z,55.20
2022-11-23T19:33:16.509Z,55.20
2022-11-23T19:35:43.087Z,55.10
2022-11-23T19:38:09.619Z,55.40
2022-11-23T19:40:37.248Z,56.00
2022-11-23T19:43:03.686Z,55.80
2022-11-23T19:45:30.172Z,55.70
2022-11-23T19:47:56.626Z,55.10
2022-11-23T19:50:23.130Z,55.30
2022-11-23T19:53:11.185Z,55.40
2022-11-23T19:55:36.070Z,55.40
2022-11-23T19:58:02.520Z,55.10
2022-11-23T20:00:28.994Z,55.30
2022-11-23T20:02:55.447Z,55.80
2022-11-23T20:05:21.998Z,56.20
2022-11-23T20:07:48.524Z,56.10
2022-11-23T20:10:15.016Z,56.10
2022-11-23T20:12:41.471Z,56.50
2022-11-23T20:15:07.930Z,56.30
2022-11-23T20:17:34.387Z,56.10
2022-11-23T20:20:00.849Z,56.10
2022-11-23T20:22:27.325Z,56.40
2022-11-23T20:24:53.825Z,56.60
2022-11-23T20:27:20.294Z,56.30
2022-11-23T20:29:52.722Z,56.40
2022-11-23T20:32:19.179Z,56.10
2022-11-23T20:34:45.653Z,56.70
2022-11-23T20:37:12.112Z,57.10
2022-11-23T20:39:38.574Z,57.40
2022-11-23T20:42:05.047Z,57.40
2022-11-23T20:44:34.067Z,57.30
2022-11-23T20:47:02.778Z,57.10
2022-11-23T20:49:30.230Z,56.70
2022-11-23T20:51:56.897Z,56.90
2022-11-23T20:54:23.330Z,57.00
2022-11-23T20:56:49.793Z,57.10
2022-11-23T20:59:16.253Z,57.20
2022-11-23T21:01:42.836Z,57.20
2022-11-23T21:04:09.414Z,56.70
2022-11-23T21:06:39.335Z,56.60
2022-11-23T21:09:06.441Z,56.90
2022-11-23T21:11:32.936Z,56.80
2022-11-23T21:13:59.404Z,56.80
2022-11-23T21:16:25.930Z,56.60
2022-11-23T21:18:52.385Z,57.10
2022-11-23T21:21:18.857Z,57.80
2022-11-23T21:23:50.888Z,57.70
2022-11-23T21:26:18.675Z,57.20
2022-11-23T21:28:45.151Z,57.30
2022-11-23T21:31:11.727Z,57.60
2022-11-23T21:33:38.258Z,57.80
2022-11-23T21:36:06.782Z,57.50
2022-11-23T21:38:33.233Z,57.30
2022-11-23T21:40:59.840Z,57.10
2022-11-23T21:43:26.311Z,57.60
2022-11-23T21:45:52.769Z,58.10
2022-11-23T21:48:19.224Z,58.00
2022-11-23T21:50:45.702Z,57.90
2022-11-23T21:53:12.168Z,57.40
2022-11-23T21:55:38.675Z,57.40
2022-11-23T21:58:05.135Z,57.80
2022-11-23T22:00:31.774Z,57.80
2022-11-23T22:02:58.238Z,57.50
2022-11-23T22:05:24.707Z,57.70
2022-11-23T22:08:13.565Z,58.10
2022-11-23T22:10:37.614Z,58.00
2022-11-23T22:13:04.067Z,58.00
2022-11-23T22:15:30.522Z,58.10
2022-11-23T22:17:57.016Z,58.10
2022-11-23T22:20:23.467Z,57.80
2022-11-23T22:22:49.940Z,57.90
2022-11-23T22:25:16.415Z,58.10
2022-11-23T22:27:42.949Z,58.10
2022-11-23T22:30:09.402Z,58.00
2022-11-23T22:32:35.885Z,57.90
2022-11-23T22:35:02.357Z,58.00
2022-11-23T22:37:28.837Z,58.10
2022-11-23T22:39:55.293Z,57.80
2022-11-23T22:42:21.753Z,57.80
2022-11-23T22:44:48.220Z,58.10
2022-11-23T22:47:14.714Z,57.90
2022-11-23T22:49:41.164Z,58.40
2022-11-23T22:52:07.649Z,58.50
2022-11-23T22:54:34.349Z,58.60
2022-11-23T22:57:03.663Z,58.40
2022-11-23T22:59:30.208Z,58.10
2022-11-23T23:01:56.671Z,58.30
2022-11-23T23:04:23.128Z,58.10
2022-11-23T23:06:49.644Z,58.30
2022-11-23T23:09:16.102Z,58.00
2022-11-23T23:11:42.556Z,58.10
2022-11-23T23:14:11.873Z,58.50
2022-11-23T23:16:38.364Z,58.10
2022-11-23T23:19:04.868Z,58.30
2022-11-23T23:21:31.422Z,58.20
2022-11-23T23:23:57.879Z,58.30
2022-11-23T23:26:24.326Z,58.50
2022-11-23T23:28:50.789Z,58.50
2022-11-23T23:31:17.354Z,58.30
2022-11-23T23:33:43.980Z,58.50
2022-11-23T23:36:10.444Z,58.60
2022-11-23T23:38:36.903Z,58.60
2022-11-23T23:41:03.372Z,58.90
2022-11-23T23:43:29.838Z,59.20
2022-11-23T23:45:58.424Z,58.90
2022-11-23T23:48:24.903Z,58.90
2022-11-23T23:50:51.418Z,59.40
2022-11-23T23:53:17.865Z,59.40
2022-11-23T23:55:44.330Z,59.00
2022-11-23T23:58:10.814Z,59.50
